sensor_id;sensor_type;location;lat;lon;timestamp;temperature;humidity
15426;DHT22;7812;50.072;7.036;2023-04-25T00:01:38;7.30;99.90
15426;DHT22;7812;50.072;7.036;2023-04-25T00:04:07;7.40;99.90
15426;DHT22;7812;50.072;7.036;2023-04-25T00:06:34;7.40;99.90
15426;DHT22;7812;50.072;7.036;2023-04-25T00:09:02;7.50;99.90
15426;DHT22;7812;50.072;7.036;2023-04-25T00:11:28;7.60;99.90
15426;DHT22;7812;50.072;7.036;2023-04-25T00:13:56;7.60;99.90
15426;DHT22;7812;50.072;7.036;2023-04-25T00:16:22;7.50;99.90
15426;DHT22;7812;50.072;7.036;2023-04-25T00:18:49;7.50;99.90
15426;DHT22;7812;50.072;7.036;2023-04-25T00:21:18;7.40;99.90
15426;DHT22;7812;50.072;7.036;2023-04-25T00:23:45;7.40;99.90
15426;DHT22;7812;50.072;7.036;2023-04-25T00:26:11;7.30;99.90
15426;DHT22;7812;50.072;7.036;2023-04-25T00:28:37;7.40;99.90
15426;DHT22;7812;50.072;7.036;2023-04-25T00:31:03;7.40;99.90
15426;DHT22;7812;50.072;7.036;2023-04-25T00:33:29;7.40;99.90
15426;DHT22;7812;50.072;7.036;2023-04-25T00:35:55;7.40;99.90
15426;DHT22;7812;50.072;7.036;2023-04-25T00:38:21;7.40;99.90
15426;DHT22;7812;50.072;7.036;2023-04-25T00:40:47;7.40;99.90
15426;DHT22;7812;50.072;7.036;2023-04-25T00:43:13;7.50;99.90
15426;DHT22;7812;50.072;7.036;2023-04-25T00:45:39;7.50;99.90
15426;DHT22;7812;50.072;7.036;2023-04-25T00:48:05;7.50;99.90
15426;DHT22;7812;50.072;7.036;2023-04-25T00:50:34;7.40;99.90
15426;DHT22;7812;50.072;7.036;2023-04-25T00:53:01;7.40;99.90
15426;DHT22;7812;50.072;7.036;2023-04-25T00:55:27;7.40;99.90
15426;DHT22;7812;50.072;7.036;2023-04-25T00:57:53;7.30;99.90
15426;DHT22;7812;50.072;7.036;2023-04-25T01:00:19;7.20;99.90
15426;DHT22;7812;50.072;7.036;2023-04-25T01:02:45;7.20;99.90
15426;DHT22;7812;50.072;7.036;2023-04-25T01:05:11;7.10;99.90
15426;DHT22;7812;50.072;7.036;2023-04-25T01:07:38;7.10;99.90
15426;DHT22;7812;50.072;7.036;2023-04-25T01:10:04;7.00;99.90
15426;DHT22;7812;50.072;7.036;2023-04-25T01:12:31;7.00;99.90
15426;DHT22;7812;50.072;7.036;2023-04-25T01:14:57;6.80;99.90
15426;DHT22;7812;50.072;7.036;2023-04-25T01:17:23;6.90;99.90
15426;DHT22;7812;50.072;7.036;2023-04-25T01:19:49;7.00;99.90
15426;DHT22;7812;50.072;7.036;2023-04-25T01:22:17;7.00;99.90
15426;DHT22;7812;50.072;7.036;2023-04-25T01:24:43;7.10;99.90
15426;DHT22;7812;50.072;7.036;2023-04-25T01:27:09;7.00;99.90
15426;DHT22;7812;50.072;7.036;2023-04-25T01:29:36;7.00;99.90
15426;DHT22;7812;50.072;7.036;2023-04-25T01:32:02;6.90;99.90
15426;DHT22;7812;50.072;7.036;2023-04-25T01:34:28;6.90;99.90
15426;DHT22;7812;50.072;7.036;2023-04-25T01:36:54;6.80;99.90
15426;DHT22;7812;50.072;7.036;2023-04-25T01:39:20;6.70;99.90
15426;DHT22;7812;50.072;7.036;2023-04-25T01:41:47;6.60;99.90
15426;DHT22;7812;50.072;7.036;2023-04-25T01:44:14;6.60;99.90
15426;DHT22;7812;50.072;7.036;2023-04-25T01:46:49;6.60;99.90
15426;DHT22;7812;50.072;7.036;2023-04-25T01:49:14;6.50;99.90
15426;DHT22;7812;50.072;7.036;2023-04-25T01:51:41;6.50;99.90
15426;DHT22;7812;50.072;7.036;2023-04-25T01:54:08;6.50;99.90
15426;DHT22;7812;50.072;7.036;2023-04-25T01:56:37;6.60;99.90
15426;DHT22;7812;50.072;7.036;2023-04-25T01:59:04;6.60;99.90
15426;DHT22;7812;50.072;7.036;2023-04-25T02:01:31;6.60;99.90
15426;DHT22;7812;50.072;7.036;2023-04-25T02:03:56;6.70;99.90
15426;DHT22;7812;50.072;7.036;2023-04-25T02:06:23;6.80;99.90
15426;DHT22;7812;50.072;7.036;2023-04-25T02:08:50;6.80;99.90
15426;DHT22;7812;50.072;7.036;2023-04-25T02:11:16;6.80;99.90
15426;DHT22;7812;50.072;7.036;2023-04-25T02:13:41;6.70;99.90
15426;DHT22;7812;50.072;7.036;2023-04-25T02:16:07;6.70;99.90
15426;DHT22;7812;50.072;7.036;2023-04-25T02:18:33;6.70;99.90
15426;DHT22;7812;50.072;7.036;2023-04-25T02:21:02;6.80;99.90
15426;DHT22;7812;50.072;7.036;2023-04-25T02:23:28;6.70;99.90
15426;DHT22;7812;50.072;7.036;2023-04-25T02:25:56;6.70;99.90
15426;DHT22;7812;50.072;7.036;2023-04-25T02:28:23;6.70;99.90
15426;DHT22;7812;50.072;7.036;2023-04-25T02:30:50;6.70;99.90
15426;DHT22;7812;50.072;7.036;2023-04-25T02:33:15;6.60;99.90
15426;DHT22;7812;50.072;7.036;2023-04-25T02:35:42;6.40;99.90
15426;DHT22;7812;50.072;7.036;2023-04-25T02:38:08;6.30;99.90
15426;DHT22;7812;50.072;7.036;2023-04-25T02:40:33;6.40;99.90
15426;DHT22;7812;50.072;7.036;2023-04-25T02:42:59;6.50;99.90
15426;DHT22;7812;50.072;7.036;2023-04-25T02:45:25;6.50;99.90
15426;DHT22;7812;50.072;7.036;2023-04-25T02:47:50;6.60;99.90
15426;DHT22;7812;50.072;7.036;2023-04-25T02:50:16;6.60;99.90
15426;DHT22;7812;50.072;7.036;2023-04-25T02:52:43;6.60;99.90
15426;DHT22;7812;50.072;7.036;2023-04-25T02:55:10;6.70;99.90
15426;DHT22;7812;50.072;7.036;2023-04-25T02:57:36;6.60;99.90
15426;DHT22;7812;50.072;7.036;2023-04-25T03:00:02;6.50;99.90
15426;DHT22;7812;50.072;7.036;2023-04-25T03:02:30;6.50;99.90
15426;DHT22;7812;50.072;7.036;2023-04-25T03:04:55;6.50;99.90
15426;DHT22;7812;50.072;7.036;2023-04-25T03:07:21;6.50;99.90
15426;DHT22;7812;50.072;7.036;2023-04-25T03:09:46;6.60;99.90
15426;DHT22;7812;50.072;7.036;2023-04-25T03:12:12;6.50;99.90
15426;DHT22;7812;50.072;7.036;2023-04-25T03:14:38;6.50;99.90
15426;DHT22;7812;50.072;7.036;2023-04-25T03:17:03;6.50;99.90
15426;DHT22;7812;50.072;7.036;2023-04-25T03:19:29;6.50;99.90
15426;DHT22;7812;50.072;7.036;2023-04-25T03:21:55;6.50;99.90
15426;DHT22;7812;50.072;7.036;2023-04-25T03:24:21;6.50;99.90
15426;DHT22;7812;50.072;7.036;2023-04-25T03:26:49;6.60;99.90
15426;DHT22;7812;50.072;7.036;2023-04-25T03:29:15;6.60;99.90
15426;DHT22;7812;50.072;7.036;2023-04-25T03:31:40;6.60;99.90
15426;DHT22;7812;50.072;7.036;2023-04-25T03:34:06;6.60;99.90
15426;DHT22;7812;50.072;7.036;2023-04-25T03:36:31;6.50;99.90
15426;DHT22;7812;50.072;7.036;2023-04-25T03:38:58;6.50;99.90
15426;DHT22;7812;50.072;7.036;2023-04-25T03:41:23;6.50;99.90
15426;DHT22;7812;50.072;7.036;2023-04-25T03:43:49;6.50;99.90
15426;DHT22;7812;50.072;7.036;2023-04-25T03:46:15;6.50;99.90
15426;DHT22;7812;50.072;7.036;2023-04-25T03:48:40;6.50;99.90
15426;DHT22;7812;50.072;7.036;2023-04-25T03:51:06;6.50;99.90
15426;DHT22;7812;50.072;7.036;2023-04-25T03:53:32;6.50;99.90
15426;DHT22;7812;50.072;7.036;2023-04-25T03:55:57;6.50;99.90
15426;DHT22;7812;50.072;7.036;2023-04-25T03:58:23;6.50;99.90
15426;DHT22;7812;50.072;7.036;2023-04-25T04:00:49;6.60;99.90
15426;DHT22;7812;50.072;7.036;2023-04-25T04:03:15;6.60;99.90
15426;DHT22;7812;50.072;7.036;2023-04-25T04:05:41;6.60;99.90
15426;DHT22;7812;50.072;7.036;2023-04-25T04:08:08;6.60;99.90
15426;DHT22;7812;50.072;7.036;2023-04-25T04:10:33;6.70;99.90
15426;DHT22;7812;50.072;7.036;2023-04-25T04:13:00;6.80;99.90
15426;DHT22;7812;50.072;7.036;2023-04-25T04:15:25;6.60;99.90
15426;DHT22;7812;50.072;7.036;2023-04-25T04:17:51;6.70;99.90
15426;DHT22;7812;50.072;7.036;2023-04-25T04:20:18;6.70;99.90
15426;DHT22;7812;50.072;7.036;2023-04-25T04:22:44;6.80;99.90
15426;DHT22;7812;50.072;7.036;2023-04-25T04:25:09;6.90;99.90
15426;DHT22;7812;50.072;7.036;2023-04-25T04:27:37;7.00;99.90
15426;DHT22;7812;50.072;7.036;2023-04-25T04:30:03;7.00;99.90
15426;DHT22;7812;50.072;7.036;2023-04-25T04:32:29;7.00;99.90
15426;DHT22;7812;50.072;7.036;2023-04-25T04:34:55;7.00;99.90
15426;DHT22;7812;50.072;7.036;2023-04-25T04:37:21;7.10;99.90
15426;DHT22;7812;50.072;7.036;2023-04-25T04:39:48;7.10;99.90
15426;DHT22;7812;50.072;7.036;2023-04-25T04:42:13;7.20;99.90
15426;DHT22;7812;50.072;7.036;2023-04-25T04:44:39;7.20;99.90
15426;DHT22;7812;50.072;7.036;2023-04-25T04:47:05;7.30;99.90
15426;DHT22;7812;50.072;7.036;2023-04-25T04:49:32;7.30;99.90
15426;DHT22;7812;50.072;7.036;2023-04-25T04:51:57;7.20;99.90
15426;DHT22;7812;50.072;7.036;2023-04-25T04:54:25;7.10;99.90
15426;DHT22;7812;50.072;7.036;2023-04-25T04:56:51;7.10;99.90
15426;DHT22;7812;50.072;7.036;2023-04-25T04:59:17;7.10;99.90
15426;DHT22;7812;50.072;7.036;2023-04-25T05:01:43;7.10;99.90
15426;DHT22;7812;50.072;7.036;2023-04-25T05:04:09;6.90;99.90
15426;DHT22;7812;50.072;7.036;2023-04-25T05:06:36;6.80;99.90
15426;DHT22;7812;50.072;7.036;2023-04-25T05:09:02;6.80;99.90
15426;DHT22;7812;50.072;7.036;2023-04-25T05:11:28;6.80;99.90
15426;DHT22;7812;50.072;7.036;2023-04-25T05:13:54;6.80;99.90
15426;DHT22;7812;50.072;7.036;2023-04-25T05:16:19;6.90;99.90
15426;DHT22;7812;50.072;7.036;2023-04-25T05:18:48;6.90;99.90
15426;DHT22;7812;50.072;7.036;2023-04-25T05:21:13;7.00;99.90
15426;DHT22;7812;50.072;7.036;2023-04-25T05:23:39;7.00;99.90
15426;DHT22;7812;50.072;7.036;2023-04-25T05:26:05;7.00;99.90
15426;DHT22;7812;50.072;7.036;2023-04-25T05:28:31;7.00;99.90
15426;DHT22;7812;50.072;7.036;2023-04-25T05:30:56;7.00;99.90
15426;DHT22;7812;50.072;7.036;2023-04-25T05:33:22;7.00;99.90
15426;DHT22;7812;50.072;7.036;2023-04-25T05:35:48;7.00;99.90
15426;DHT22;7812;50.072;7.036;2023-04-25T05:38:14;7.00;99.90
15426;DHT22;7812;50.072;7.036;2023-04-25T05:40:40;7.10;99.90
15426;DHT22;7812;50.072;7.036;2023-04-25T05:43:06;7.30;99.90
15426;DHT22;7812;50.072;7.036;2023-04-25T05:45:32;7.30;99.90
15426;DHT22;7812;50.072;7.036;2023-04-25T05:47:58;7.40;99.90
15426;DHT22;7812;50.072;7.036;2023-04-25T05:50:23;7.50;99.90
15426;DHT22;7812;50.072;7.036;2023-04-25T05:52:50;7.60;99.90
15426;DHT22;7812;50.072;7.036;2023-04-25T05:55:16;7.50;99.90
15426;DHT22;7812;50.072;7.036;2023-04-25T05:57:41;7.50;99.90
15426;DHT22;7812;50.072;7.036;2023-04-25T06:00:13;7.40;99.90
15426;DHT22;7812;50.072;7.036;2023-04-25T06:02:41;7.40;99.90
15426;DHT22;7812;50.072;7.036;2023-04-25T06:05:07;7.40;99.90
15426;DHT22;7812;50.072;7.036;2023-04-25T06:07:32;7.50;99.90
15426;DHT22;7812;50.072;7.036;2023-04-25T06:09:58;7.60;99.90
15426;DHT22;7812;50.072;7.036;2023-04-25T06:12:26;7.60;99.90
15426;DHT22;7812;50.072;7.036;2023-04-25T06:14:52;7.60;99.90
15426;DHT22;7812;50.072;7.036;2023-04-25T06:17:17;7.70;99.90
15426;DHT22;7812;50.072;7.036;2023-04-25T06:19:43;7.60;99.90
15426;DHT22;7812;50.072;7.036;2023-04-25T06:22:09;7.60;99.90
15426;DHT22;7812;50.072;7.036;2023-04-25T06:24:36;7.40;99.90
15426;DHT22;7812;50.072;7.036;2023-04-25T06:27:02;7.30;99.90
15426;DHT22;7812;50.072;7.036;2023-04-25T06:29:28;7.10;99.90
15426;DHT22;7812;50.072;7.036;2023-04-25T06:31:53;7.00;99.90
15426;DHT22;7812;50.072;7.036;2023-04-25T06:34:19;7.00;99.90
15426;DHT22;7812;50.072;7.036;2023-04-25T06:36:45;7.00;99.90
15426;DHT22;7812;50.072;7.036;2023-04-25T06:39:11;7.00;99.90
15426;DHT22;7812;50.072;7.036;2023-04-25T06:41:37;7.00;99.90
15426;DHT22;7812;50.072;7.036;2023-04-25T06:44:02;7.00;99.90
15426;DHT22;7812;50.072;7.036;2023-04-25T06:46:28;6.90;99.90
15426;DHT22;7812;50.072;7.036;2023-04-25T06:48:54;7.00;99.90
15426;DHT22;7812;50.072;7.036;2023-04-25T06:51:19;6.80;99.90
15426;DHT22;7812;50.072;7.036;2023-04-25T06:53:47;6.70;99.90
15426;DHT22;7812;50.072;7.036;2023-04-25T06:56:12;6.60;99.90
15426;DHT22;7812;50.072;7.036;2023-04-25T06:58:38;6.60;99.90
15426;DHT22;7812;50.072;7.036;2023-04-25T07:01:04;6.60;99.90
15426;DHT22;7812;50.072;7.036;2023-04-25T07:03:29;6.60;99.90
15426;DHT22;7812;50.072;7.036;2023-04-25T07:05:55;6.70;99.90
15426;DHT22;7812;50.072;7.036;2023-04-25T07:08:21;6.60;99.90
15426;DHT22;7812;50.072;7.036;2023-04-25T07:10:47;6.60;99.90
15426;DHT22;7812;50.072;7.036;2023-04-25T07:13:12;6.60;99.90
15426;DHT22;7812;50.072;7.036;2023-04-25T07:15:38;6.60;99.90
15426;DHT22;7812;50.072;7.036;2023-04-25T07:18:04;6.70;99.90
15426;DHT22;7812;50.072;7.036;2023-04-25T07:20:30;6.80;99.90
15426;DHT22;7812;50.072;7.036;2023-04-25T07:22:56;6.90;99.90
15426;DHT22;7812;50.072;7.036;2023-04-25T07:25:22;7.10;99.90
15426;DHT22;7812;50.072;7.036;2023-04-25T07:27:48;7.30;99.90
15426;DHT22;7812;50.072;7.036;2023-04-25T07:30:14;7.50;99.90
15426;DHT22;7812;50.072;7.036;2023-04-25T07:32:40;7.60;99.90
15426;DHT22;7812;50.072;7.036;2023-04-25T07:35:06;7.60;99.90
15426;DHT22;7812;50.072;7.036;2023-04-25T07:37:33;7.50;99.90
15426;DHT22;7812;50.072;7.036;2023-04-25T07:39:59;7.50;99.90
15426;DHT22;7812;50.072;7.036;2023-04-25T07:42:25;7.40;99.90
15426;DHT22;7812;50.072;7.036;2023-04-25T07:44:51;7.30;99.90
15426;DHT22;7812;50.072;7.036;2023-04-25T07:47:17;7.10;99.90
15426;DHT22;7812;50.072;7.036;2023-04-25T07:49:44;7.10;99.90
15426;DHT22;7812;50.072;7.036;2023-04-25T07:52:11;7.10;99.90
15426;DHT22;7812;50.072;7.036;2023-04-25T07:54:36;7.10;99.90
15426;DHT22;7812;50.072;7.036;2023-04-25T07:57:03;7.20;99.90
15426;DHT22;7812;50.072;7.036;2023-04-25T07:59:29;7.20;99.90
15426;DHT22;7812;50.072;7.036;2023-04-25T08:01:55;7.40;99.90
15426;DHT22;7812;50.072;7.036;2023-04-25T08:04:22;7.50;99.90
15426;DHT22;7812;50.072;7.036;2023-04-25T08:06:48;7.70;99.90
15426;DHT22;7812;50.072;7.036;2023-04-25T08:09:14;7.90;99.90
15426;DHT22;7812;50.072;7.036;2023-04-25T08:11:40;8.10;99.90
15426;DHT22;7812;50.072;7.036;2023-04-25T08:14:07;8.00;99.90
15426;DHT22;7812;50.072;7.036;2023-04-25T08:16:32;7.80;99.90
15426;DHT22;7812;50.072;7.036;2023-04-25T08:19:00;7.90;99.90
15426;DHT22;7812;50.072;7.036;2023-04-25T08:21:26;8.10;99.90
15426;DHT22;7812;50.072;7.036;2023-04-25T08:23:53;8.30;99.90
15426;DHT22;7812;50.072;7.036;2023-04-25T08:26:18;8.50;99.90
15426;DHT22;7812;50.072;7.036;2023-04-25T08:28:44;8.60;99.90
15426;DHT22;7812;50.072;7.036;2023-04-25T08:31:11;8.60;99.90
15426;DHT22;7812;50.072;7.036;2023-04-25T08:33:36;8.70;99.90
15426;DHT22;7812;50.072;7.036;2023-04-25T08:36:02;9.00;99.90
15426;DHT22;7812;50.072;7.036;2023-04-25T08:38:28;8.90;99.90
15426;DHT22;7812;50.072;7.036;2023-04-25T08:40:54;9.00;99.90
15426;DHT22;7812;50.072;7.036;2023-04-25T08:43:20;9.30;99.90
15426;DHT22;7812;50.072;7.036;2023-04-25T08:45:47;9.50;99.90
15426;DHT22;7812;50.072;7.036;2023-04-25T08:48:14;9.50;99.90
15426;DHT22;7812;50.072;7.036;2023-04-25T08:50:50;9.40;99.90
15426;DHT22;7812;50.072;7.036;2023-04-25T08:53:22;9.50;99.90
15426;DHT22;7812;50.072;7.036;2023-04-25T08:55:53;9.40;99.90
15426;DHT22;7812;50.072;7.036;2023-04-25T08:58:19;9.30;99.90
15426;DHT22;7812;50.072;7.036;2023-04-25T09:00:48;9.30;99.90
15426;DHT22;7812;50.072;7.036;2023-04-25T09:03:15;9.40;99.90
15426;DHT22;7812;50.072;7.036;2023-04-25T09:05:41;9.30;99.90
15426;DHT22;7812;50.072;7.036;2023-04-25T09:08:07;9.20;99.90
15426;DHT22;7812;50.072;7.036;2023-04-25T09:10:33;9.10;99.90
15426;DHT22;7812;50.072;7.036;2023-04-25T09:13:09;9.10;99.90
15426;DHT22;7812;50.072;7.036;2023-04-25T09:15:58;9.00;99.90
15426;DHT22;7812;50.072;7.036;2023-04-25T09:18:28;9.10;99.90
15426;DHT22;7812;50.072;7.036;2023-04-25T09:20:55;9.00;99.90
15426;DHT22;7812;50.072;7.036;2023-04-25T09:23:22;9.00;99.90
15426;DHT22;7812;50.072;7.036;2023-04-25T09:25:50;9.00;99.90
15426;DHT22;7812;50.072;7.036;2023-04-25T09:28:18;9.00;99.90
15426;DHT22;7812;50.072;7.036;2023-04-25T09:30:47;9.10;99.90
15426;DHT22;7812;50.072;7.036;2023-04-25T09:33:15;9.30;99.90
15426;DHT22;7812;50.072;7.036;2023-04-25T09:35:43;9.40;99.90
15426;DHT22;7812;50.072;7.036;2023-04-25T09:38:13;9.10;99.90
15426;DHT22;7812;50.072;7.036;2023-04-25T09:40:43;9.10;99.90
15426;DHT22;7812;50.072;7.036;2023-04-25T09:45:46;9.10;99.90
15426;DHT22;7812;50.072;7.036;2023-04-25T09:48:20;9.20;99.90
15426;DHT22;7812;50.072;7.036;2023-04-25T09:51:11;9.10;99.90
15426;DHT22;7812;50.072;7.036;2023-04-25T09:53:46;9.00;99.90
15426;DHT22;7812;50.072;7.036;2023-04-25T09:56:15;9.30;99.90
15426;DHT22;7812;50.072;7.036;2023-04-25T09:58:41;9.30;99.90
15426;DHT22;7812;50.072;7.036;2023-04-25T10:01:09;9.70;99.90
15426;DHT22;7812;50.072;7.036;2023-04-25T10:03:38;9.90;99.90
15426;DHT22;7812;50.072;7.036;2023-04-25T10:06:09;10.00;99.90
15426;DHT22;7812;50.072;7.036;2023-04-25T10:08:37;10.00;99.90
15426;DHT22;7812;50.072;7.036;2023-04-25T10:11:05;10.10;99.90
15426;DHT22;7812;50.072;7.036;2023-04-25T10:13:32;10.30;99.90
15426;DHT22;7812;50.072;7.036;2023-04-25T10:15:58;10.00;99.90
15426;DHT22;7812;50.072;7.036;2023-04-25T10:18:28;10.00;99.90
15426;DHT22;7812;50.072;7.036;2023-04-25T10:21:01;9.60;99.90
15426;DHT22;7812;50.072;7.036;2023-04-25T10:23:30;9.90;99.90
15426;DHT22;7812;50.072;7.036;2023-04-25T10:25:56;10.00;99.90
15426;DHT22;7812;50.072;7.036;2023-04-25T10:28:22;9.80;99.90
15426;DHT22;7812;50.072;7.036;2023-04-25T10:30:59;9.50;99.90
15426;DHT22;7812;50.072;7.036;2023-04-25T10:33:37;9.20;99.90
15426;DHT22;7812;50.072;7.036;2023-04-25T10:38:39;9.00;99.90
15426;DHT22;7812;50.072;7.036;2023-04-25T10:41:10;9.10;99.90
15426;DHT22;7812;50.072;7.036;2023-04-25T10:44:00;9.30;99.90
15426;DHT22;7812;50.072;7.036;2023-04-25T10:46:28;9.70;99.90
15426;DHT22;7812;50.072;7.036;2023-04-25T10:48:56;9.80;99.90
15426;DHT22;7812;50.072;7.036;2023-04-25T10:51:31;10.10;99.90
15426;DHT22;7812;50.072;7.036;2023-04-25T10:54:04;10.60;99.90
15426;DHT22;7812;50.072;7.036;2023-04-25T10:59:12;10.60;99.90
15426;DHT22;7812;50.072;7.036;2023-04-25T11:01:43;10.30;99.90
15426;DHT22;7812;50.072;7.036;2023-04-25T11:04:30;10.40;99.90
15426;DHT22;7812;50.072;7.036;2023-04-25T11:09:34;10.60;99.90
15426;DHT22;7812;50.072;7.036;2023-04-25T11:12:01;10.50;99.90
15426;DHT22;7812;50.072;7.036;2023-04-25T11:14:27;10.70;99.90
15426;DHT22;7812;50.072;7.036;2023-04-25T11:16:54;10.90;99.90
15426;DHT22;7812;50.072;7.036;2023-04-25T11:19:21;11.20;99.90
15426;DHT22;7812;50.072;7.036;2023-04-25T11:21:47;11.10;99.90
15426;DHT22;7812;50.072;7.036;2023-04-25T11:24:16;11.00;99.90
15426;DHT22;7812;50.072;7.036;2023-04-25T11:26:43;11.00;99.90
15426;DHT22;7812;50.072;7.036;2023-04-25T11:29:09;11.00;99.90
15426;DHT22;7812;50.072;7.036;2023-04-25T11:31:34;11.10;99.90
15426;DHT22;7812;50.072;7.036;2023-04-25T11:34:00;11.00;99.90
15426;DHT22;7812;50.072;7.036;2023-04-25T11:36:26;11.40;99.90
15426;DHT22;7812;50.072;7.036;2023-04-25T11:38:52;11.70;99.90
15426;DHT22;7812;50.072;7.036;2023-04-25T11:41:22;12.00;99.90
15426;DHT22;7812;50.072;7.036;2023-04-25T11:43:48;11.90;99.90
15426;DHT22;7812;50.072;7.036;2023-04-25T11:46:15;11.80;99.90
15426;DHT22;7812;50.072;7.036;2023-04-25T11:48:42;12.00;99.90
15426;DHT22;7812;50.072;7.036;2023-04-25T11:51:08;11.80;99.90
15426;DHT22;7812;50.072;7.036;2023-04-25T11:53:34;11.60;99.90
15426;DHT22;7812;50.072;7.036;2023-04-25T11:56:00;11.50;99.90
15426;DHT22;7812;50.072;7.036;2023-04-25T11:58:27;11.80;99.90
15426;DHT22;7812;50.072;7.036;2023-04-25T12:00:54;12.40;99.90
15426;DHT22;7812;50.072;7.036;2023-04-25T12:03:19;12.60;99.90
15426;DHT22;7812;50.072;7.036;2023-04-25T12:05:46;13.00;99.90
15426;DHT22;7812;50.072;7.036;2023-04-25T12:08:16;13.70;99.90
15426;DHT22;7812;50.072;7.036;2023-04-25T12:10:45;13.60;99.90
15426;DHT22;7812;50.072;7.036;2023-04-25T12:13:25;13.50;99.90
15426;DHT22;7812;50.072;7.036;2023-04-25T12:15:55;13.30;99.90
15426;DHT22;7812;50.072;7.036;2023-04-25T12:18:24;13.00;99.90
15426;DHT22;7812;50.072;7.036;2023-04-25T12:20:53;12.70;99.90
15426;DHT22;7812;50.072;7.036;2023-04-25T12:23:25;12.70;99.90
15426;DHT22;7812;50.072;7.036;2023-04-25T12:25:52;12.50;99.90
15426;DHT22;7812;50.072;7.036;2023-04-25T12:28:18;11.50;99.90
15426;DHT22;7812;50.072;7.036;2023-04-25T12:30:55;11.20;99.90
15426;DHT22;7812;50.072;7.036;2023-04-25T12:33:25;10.80;99.90
15426;DHT22;7812;50.072;7.036;2023-04-25T12:35:52;10.70;99.90
15426;DHT22;7812;50.072;7.036;2023-04-25T12:38:41;10.80;99.90
15426;DHT22;7812;50.072;7.036;2023-04-25T12:41:08;11.20;99.90
15426;DHT22;7812;50.072;7.036;2023-04-25T12:43:33;11.40;99.90
15426;DHT22;7812;50.072;7.036;2023-04-25T12:46:00;11.50;99.90
15426;DHT22;7812;50.072;7.036;2023-04-25T12:48:25;11.60;99.90
15426;DHT22;7812;50.072;7.036;2023-04-25T12:50:52;11.50;99.90
15426;DHT22;7812;50.072;7.036;2023-04-25T12:53:22;11.50;99.90
15426;DHT22;7812;50.072;7.036;2023-04-25T12:55:48;11.50;99.90
15426;DHT22;7812;50.072;7.036;2023-04-25T12:58:15;11.30;99.90
15426;DHT22;7812;50.072;7.036;2023-04-25T13:00:41;11.40;99.90
15426;DHT22;7812;50.072;7.036;2023-04-25T13:03:08;11.60;99.90
15426;DHT22;7812;50.072;7.036;2023-04-25T13:05:34;11.80;99.90
15426;DHT22;7812;50.072;7.036;2023-04-25T13:08:00;11.60;99.90
15426;DHT22;7812;50.072;7.036;2023-04-25T13:10:25;11.40;99.90
15426;DHT22;7812;50.072;7.036;2023-04-25T13:12:51;11.30;99.90
15426;DHT22;7812;50.072;7.036;2023-04-25T13:15:17;11.30;99.90
15426;DHT22;7812;50.072;7.036;2023-04-25T13:17:42;11.20;99.90
15426;DHT22;7812;50.072;7.036;2023-04-25T13:20:09;11.10;99.90
15426;DHT22;7812;50.072;7.036;2023-04-25T13:22:37;11.20;99.90
15426;DHT22;7812;50.072;7.036;2023-04-25T13:25:03;11.00;99.90
15426;DHT22;7812;50.072;7.036;2023-04-25T13:27:29;10.80;99.90
15426;DHT22;7812;50.072;7.036;2023-04-25T13:29:55;10.80;99.90
15426;DHT22;7812;50.072;7.036;2023-04-25T13:32:21;10.60;99.90
15426;DHT22;7812;50.072;7.036;2023-04-25T13:34:47;10.40;99.90
15426;DHT22;7812;50.072;7.036;2023-04-25T13:37:13;10.20;99.90
15426;DHT22;7812;50.072;7.036;2023-04-25T13:39:40;10.20;99.90
15426;DHT22;7812;50.072;7.036;2023-04-25T13:42:06;10.30;99.90
15426;DHT22;7812;50.072;7.036;2023-04-25T13:44:32;10.30;99.90
15426;DHT22;7812;50.072;7.036;2023-04-25T13:46:57;10.20;99.90
15426;DHT22;7812;50.072;7.036;2023-04-25T13:49:23;10.40;99.90
15426;DHT22;7812;50.072;7.036;2023-04-25T13:51:49;10.70;99.90
15426;DHT22;7812;50.072;7.036;2023-04-25T13:54:14;10.90;99.90
15426;DHT22;7812;50.072;7.036;2023-04-25T13:56:40;11.00;99.90
15426;DHT22;7812;50.072;7.036;2023-04-25T13:59:07;10.80;99.90
15426;DHT22;7812;50.072;7.036;2023-04-25T14:01:33;10.70;99.90
15426;DHT22;7812;50.072;7.036;2023-04-25T14:04:03;10.70;99.90
15426;DHT22;7812;50.072;7.036;2023-04-25T14:06:31;10.60;99.90
15426;DHT22;7812;50.072;7.036;2023-04-25T14:08:57;10.80;99.90
15426;DHT22;7812;50.072;7.036;2023-04-25T14:11:23;11.00;99.90
15426;DHT22;7812;50.072;7.036;2023-04-25T14:13:48;10.90;99.90
15426;DHT22;7812;50.072;7.036;2023-04-25T14:16:15;10.80;99.90
15426;DHT22;7812;50.072;7.036;2023-04-25T14:18:41;11.00;99.90
15426;DHT22;7812;50.072;7.036;2023-04-25T14:21:07;11.20;99.90
15426;DHT22;7812;50.072;7.036;2023-04-25T14:23:33;11.50;99.90
15426;DHT22;7812;50.072;7.036;2023-04-25T14:26:00;11.50;99.90
15426;DHT22;7812;50.072;7.036;2023-04-25T14:28:26;11.40;99.90
15426;DHT22;7812;50.072;7.036;2023-04-25T14:30:52;11.40;99.90
15426;DHT22;7812;50.072;7.036;2023-04-25T14:33:18;11.60;99.90
15426;DHT22;7812;50.072;7.036;2023-04-25T14:35:43;11.80;99.90
15426;DHT22;7812;50.072;7.036;2023-04-25T14:38:09;11.70;99.90
15426;DHT22;7812;50.072;7.036;2023-04-25T14:40:35;11.60;99.90
15426;DHT22;7812;50.072;7.036;2023-04-25T14:43:02;11.30;99.90
15426;DHT22;7812;50.072;7.036;2023-04-25T14:45:28;11.10;99.90
15426;DHT22;7812;50.072;7.036;2023-04-25T14:47:53;10.80;99.90
15426;DHT22;7812;50.072;7.036;2023-04-25T14:50:19;10.50;99.90
15426;DHT22;7812;50.072;7.036;2023-04-25T14:52:46;10.10;99.90
15426;DHT22;7812;50.072;7.036;2023-04-25T14:55:12;9.90;99.90
15426;DHT22;7812;50.072;7.036;2023-04-25T14:57:38;9.70;99.90
15426;DHT22;7812;50.072;7.036;2023-04-25T15:00:05;9.60;99.90
15426;DHT22;7812;50.072;7.036;2023-04-25T15:02:35;9.60;99.90
15426;DHT22;7812;50.072;7.036;2023-04-25T15:05:00;9.60;99.90
15426;DHT22;7812;50.072;7.036;2023-04-25T15:07:26;9.70;99.90
15426;DHT22;7812;50.072;7.036;2023-04-25T15:09:52;9.80;99.90
15426;DHT22;7812;50.072;7.036;2023-04-25T15:12:18;9.90;99.90
15426;DHT22;7812;50.072;7.036;2023-04-25T15:14:44;9.80;99.90
15426;DHT22;7812;50.072;7.036;2023-04-25T15:17:10;9.70;99.90
15426;DHT22;7812;50.072;7.036;2023-04-25T15:19:38;9.70;99.90
15426;DHT22;7812;50.072;7.036;2023-04-25T15:22:05;9.60;99.90
15426;DHT22;7812;50.072;7.036;2023-04-25T15:24:32;9.50;99.90
15426;DHT22;7812;50.072;7.036;2023-04-25T15:26:58;9.50;99.90
15426;DHT22;7812;50.072;7.036;2023-04-25T15:29:24;9.40;99.90
15426;DHT22;7812;50.072;7.036;2023-04-25T15:31:51;9.40;99.90
15426;DHT22;7812;50.072;7.036;2023-04-25T15:34:17;9.40;99.90
15426;DHT22;7812;50.072;7.036;2023-04-25T15:36:42;9.40;99.90
15426;DHT22;7812;50.072;7.036;2023-04-25T15:39:08;9.30;99.90
15426;DHT22;7812;50.072;7.036;2023-04-25T15:41:35;9.40;99.90
15426;DHT22;7812;50.072;7.036;2023-04-25T15:44:01;9.40;99.90
15426;DHT22;7812;50.072;7.036;2023-04-25T15:46:27;9.50;99.90
15426;DHT22;7812;50.072;7.036;2023-04-25T15:48:55;9.60;99.90
15426;DHT22;7812;50.072;7.036;2023-04-25T15:51:21;9.60;99.90
15426;DHT22;7812;50.072;7.036;2023-04-25T15:53:47;9.60;99.90
15426;DHT22;7812;50.072;7.036;2023-04-25T15:56:12;9.70;99.90
15426;DHT22;7812;50.072;7.036;2023-04-25T15:58:38;9.80;99.90
15426;DHT22;7812;50.072;7.036;2023-04-25T16:01:04;10.00;99.90
15426;DHT22;7812;50.072;7.036;2023-04-25T16:03:30;10.20;99.90
15426;DHT22;7812;50.072;7.036;2023-04-25T16:05:56;10.20;99.90